Time;durP1;ratioP1;P1;durP2;ratioP2;P2;SDS_P1;SDS_P2;PMS_P1;PMS_P2;Temp;Humidity;BMP_temperature;BMP_pressure;BME280_temperature;BME280_humidity;BME280_pressure;Samples;Min_cycle;Max_cycle;Signal;HPM_P1;HPM_P2
2022/06/25 00:01:29;;;;;;;6.97;6.47;;;15.80;99.90;;;;;;4984996;28;20454;-79
2022/06/25 00:03:56;;;;;;;6.17;5.60;;;15.80;99.90;;;;;;4985524;28;20965;-79
2022/06/25 00:06:23;;;;;;;7.13;5.97;;;15.80;99.90;;;;;;4988991;28;20492;-80
2022/06/25 00:08:51;;;;;;;4.43;4.03;;;15.70;99.90;;;;;;4992316;28;20470;-79
2022/06/25 00:14:06;;;;;;;4.90;4.60;;;15.70;99.90;;;;;;4988317;28;20960;-79
2022/06/25 00:16:35;;;;;;;5.77;5.30;;;15.70;99.90;;;;;;4987275;28;20593;-79
2022/06/25 00:19:03;;;;;;;4.57;4.30;;;15.70;99.90;;;;;;4982569;28;20489;-79
2022/06/25 00:21:31;;;;;;;4.70;4.40;;;15.60;99.90;;;;;;4984911;28;20516;-79
2022/06/25 00:23:58;;;;;;;4.33;4.03;;;15.60;99.90;;;;;;4986069;28;20552;-79
2022/06/25 00:26:25;;;;;;;5.03;4.63;;;15.60;99.90;;;;;;4987709;28;20482;-79
2022/06/25 00:28:52;;;;;;;4.80;4.50;;;15.60;99.90;;;;;;4986848;28;20831;-79
2022/06/25 00:31:19;;;;;;;5.00;4.70;;;15.60;99.90;;;;;;4981985;28;20461;-79
2022/06/25 00:33:47;;;;;;;4.90;4.60;;;15.60;99.90;;;;;;4989521;28;20457;-79
2022/06/25 00:36:14;;;;;;;5.50;5.10;;;15.60;99.90;;;;;;4984096;28;20972;-79
2022/06/25 00:38:41;;;;;;;5.00;4.70;;;15.60;99.90;;;;;;4986853;28;20836;-79
2022/06/25 00:41:08;;;;;;;5.00;4.70;;;15.50;99.90;;;;;;4986806;28;20813;-79
2022/06/25 00:43:38;;;;;;;5.50;5.00;;;15.50;99.90;;;;;;4989574;28;20462;-79
2022/06/25 00:46:06;;;;;;;4.93;4.57;;;15.50;99.90;;;;;;4989949;28;20450;-79
2022/06/25 00:48:33;;;;;;;4.73;4.43;;;15.50;99.90;;;;;;4991297;28;20465;-79
2022/06/25 00:51:10;;;;;;;5.27;4.97;;;15.50;99.90;;;;;;4990532;28;20514;-79
2022/06/25 00:53:40;;;;;;;5.37;4.83;;;15.40;99.90;;;;;;4989061;28;20473;-79
2022/06/25 00:56:09;;;;;;;4.37;4.07;;;15.40;99.90;;;;;;4989995;28;21027;-79
2022/06/25 00:58:40;;;;;;;5.60;5.07;;;15.40;99.90;;;;;;4991570;28;20473;-79
2022/06/25 01:01:09;;;;;;;5.07;4.67;;;15.40;99.90;;;;;;4990986;28;20960;-79
2022/06/25 01:03:37;;;;;;;5.40;4.73;;;15.40;99.90;;;;;;4990691;28;20464;-79
2022/06/25 01:06:06;;;;;;;5.17;4.77;;;15.40;99.90;;;;;;4989799;28;20813;-79
2022/06/25 01:08:33;;;;;;;4.43;4.03;;;15.40;99.90;;;;;;4992528;28;20466;-79
2022/06/25 01:11:01;;;;;;;4.53;4.13;;;15.40;99.90;;;;;;4989799;28;20454;-79
2022/06/25 01:13:29;;;;;;;4.40;4.17;;;15.40;99.90;;;;;;4995776;28;20485;-79
2022/06/25 01:15:56;;;;;;;4.63;4.23;;;15.40;99.90;;;;;;4991012;28;20458;-79
2022/06/25 01:18:23;;;;;;;4.90;4.60;;;15.40;99.90;;;;;;4990442;28;20888;-79
2022/06/25 01:20:50;;;;;;;4.67;4.33;;;15.30;99.90;;;;;;4993469;28;20458;-79
2022/06/25 01:23:18;;;;;;;5.07;4.57;;;15.30;99.90;;;;;;4990431;28;20459;-79
2022/06/25 01:25:45;;;;;;;4.87;4.50;;;15.30;99.90;;;;;;4989402;28;20458;-79
2022/06/25 01:28:12;;;;;;;4.60;4.20;;;15.30;99.90;;;;;;4987325;28;20454;-79
2022/06/25 01:30:40;;;;;;;4.30;4.00;;;15.30;99.90;;;;;;4987815;28;20462;-79
2022/06/25 01:33:10;;;;;;;4.70;4.40;;;15.30;99.90;;;;;;4989772;28;20556;-79
2022/06/25 01:35:37;;;;;;;4.70;4.40;;;15.30;99.90;;;;;;4989758;28;20462;-79
2022/06/25 01:38:05;;;;;;;5.37;4.97;;;15.30;99.90;;;;;;4983756;28;20498;-79
2022/06/25 01:40:34;;;;;;;4.47;4.17;;;15.30;99.90;;;;;;4983990;28;20468;-79
2022/06/25 01:43:01;;;;;;;4.83;4.50;;;15.20;99.90;;;;;;4983117;28;20517;-79
2022/06/25 01:45:30;;;;;;;5.10;4.70;;;15.30;99.90;;;;;;4983423;28;20460;-79
2022/06/25 01:47:58;;;;;;;4.10;3.83;;;15.20;99.90;;;;;;4984398;28;20598;-79
2022/06/25 01:50:25;;;;;;;5.33;4.93;;;15.20;99.90;;;;;;4991085;28;20537;-79
2022/06/25 01:52:52;;;;;;;5.03;4.73;;;15.20;99.90;;;;;;4987393;28;20512;-79
2022/06/25 01:55:20;;;;;;;4.80;4.37;;;15.30;99.90;;;;;;4986833;28;20446;-79
2022/06/25 01:57:50;;;;;;;5.20;4.40;;;15.30;99.90;;;;;;4988734;28;20908;-79
2022/06/25 02:00:19;;;;;;;5.10;4.10;;;15.30;99.90;;;;;;4989663;28;20539;-79
2022/06/25 02:02:47;;;;;;;4.67;4.37;;;15.30;99.90;;;;;;4990552;28;20469;-79
2022/06/25 02:05:15;;;;;;;4.17;3.87;;;15.30;99.90;;;;;;4988901;28;20474;-79
2022/06/25 02:07:43;;;;;;;6.80;4.00;;;15.40;99.90;;;;;;4990140;28;20482;-79
2022/06/25 02:10:11;;;;;;;4.90;4.40;;;15.40;99.90;;;;;;4984820;28;21240;-79
2022/06/25 02:12:38;;;;;;;4.17;3.87;;;15.30;99.90;;;;;;4982364;28;20485;-79
2022/06/25 02:15:08;;;;;;;4.07;3.77;;;15.40;99.90;;;;;;4988742;28;20498;-79
2022/06/25 02:17:35;;;;;;;4.50;4.20;;;15.40;99.90;;;;;;4987376;28;20564;-79
2022/06/25 02:20:02;;;;;;;4.80;4.40;;;15.30;99.90;;;;;;4988218;28;20489;-79
2022/06/25 02:22:29;;;;;;;4.03;3.83;;;15.30;99.90;;;;;;4987638;28;20481;-78
2022/06/25 02:24:56;;;;;;;4.80;4.10;;;15.30;99.90;;;;;;4990460;28;20817;-79
2022/06/25 02:27:23;;;;;;;5.13;4.50;;;15.20;99.90;;;;;;4986882;28;20592;-79
2022/06/25 02:29:50;;;;;;;4.40;4.10;;;15.20;99.90;;;;;;4989054;28;20554;-79
2022/06/25 02:32:19;;;;;;;4.50;4.20;;;15.10;99.90;;;;;;4987887;28;20455;-79
2022/06/25 02:34:46;;;;;;;5.97;4.23;;;15.10;99.90;;;;;;4987956;28;20465;-79
2022/06/25 02:37:13;;;;;;;4.10;3.80;;;15.10;99.90;;;;;;4987642;28;20487;-79
2022/06/25 02:39:40;;;;;;;4.53;4.20;;;15.00;99.90;;;;;;4988377;28;20500;-79
2022/06/25 02:42:07;;;;;;;3.77;3.47;;;15.00;99.90;;;;;;4987259;28;20996;-79
2022/06/25 02:44:34;;;;;;;5.10;4.70;;;15.00;99.90;;;;;;4995440;28;20449;-79
2022/06/25 02:47:01;;;;;;;4.50;4.20;;;14.90;99.90;;;;;;4988276;28;20540;-79
2022/06/25 02:49:29;;;;;;;4.20;3.77;;;14.90;99.90;;;;;;4978362;28;20461;-79
2022/06/25 02:51:57;;;;;;;4.13;3.83;;;14.90;99.90;;;;;;4987551;28;20531;-79
2022/06/25 02:54:24;;;;;;;4.90;4.33;;;14.90;99.90;;;;;;4990656;28;20458;-78
2022/06/25 02:59:40;;;;;;;4.43;4.10;;;14.90;99.90;;;;;;4987140;28;20488;-79
2022/06/25 03:02:08;;;;;;;4.53;4.23;;;14.90;99.90;;;;;;4989184;28;20559;-79
2022/06/25 03:04:36;;;;;;;4.20;4.00;;;14.80;99.90;;;;;;4987216;28;20560;-78
2022/06/25 03:07:04;;;;;;;5.20;4.60;;;14.80;99.90;;;;;;4983526;28;20481;-78
2022/06/25 03:09:31;;;;;;;4.20;3.87;;;14.80;99.90;;;;;;4985674;28;20541;-79
2022/06/25 03:11:58;;;;;;;5.17;4.67;;;14.80;99.90;;;;;;4988151;28;20450;-79
2022/06/25 03:14:25;;;;;;;6.30;5.80;;;14.80;99.90;;;;;;4984891;28;20458;-78
2022/06/25 03:16:52;;;;;;;6.83;6.33;;;14.80;99.90;;;;;;4986786;28;20499;-79
2022/06/25 03:19:19;;;;;;;7.10;6.60;;;14.80;99.90;;;;;;4987176;28;20477;-78
2022/06/25 03:21:47;;;;;;;6.13;5.53;;;14.80;99.90;;;;;;4987270;28;20485;-78
2022/06/25 03:24:15;;;;;;;5.10;4.70;;;14.80;99.90;;;;;;4989287;28;20956;-78
2022/06/25 03:26:42;;;;;;;4.63;3.77;;;14.80;99.90;;;;;;4987768;28;20996;-78
2022/06/25 03:29:10;;;;;;;4.37;3.97;;;14.80;99.90;;;;;;4987907;28;20549;-78
2022/06/25 03:31:37;;;;;;;4.37;3.97;;;14.70;99.90;;;;;;4983910;28;20450;-79
2022/06/25 03:34:04;;;;;;;3.77;3.57;;;14.80;99.90;;;;;;4982246;28;20461;-79
2022/06/25 03:36:31;;;;;;;3.80;3.50;;;14.80;99.90;;;;;;4989006;28;20477;-78
2022/06/25 03:38:59;;;;;;;3.90;3.60;;;14.80;99.90;;;;;;4988143;28;20509;-79
2022/06/25 03:41:36;;;;;;;4.07;3.20;;;14.80;99.90;;;;;;4990331;28;20458;-78
2022/06/25 03:44:05;;;;;;;4.23;3.93;;;14.80;99.90;;;;;;4984748;28;20582;-78
2022/06/25 03:46:32;;;;;;;4.00;3.60;;;14.80;99.90;;;;;;4988753;28;20849;-78
2022/06/25 03:49:00;;;;;;;4.43;3.83;;;14.80;99.90;;;;;;4986530;28;20462;-79
2022/06/25 03:51:28;;;;;;;5.22;3.70;;;14.70;99.90;;;;;;4982869;28;20963;-79
2022/06/25 03:53:55;;;;;;;4.10;3.70;;;14.80;99.90;;;;;;4987367;28;20555;-78
2022/06/25 03:56:24;;;;;;;4.27;3.87;;;14.80;99.90;;;;;;4990256;28;20484;-79
2022/06/25 03:58:53;;;;;;;4.20;3.80;;;14.80;99.90;;;;;;4985663;28;20458;-79
2022/06/25 04:01:21;;;;;;;4.43;4.13;;;14.70;99.90;;;;;;4987951;28;20457;-78
2022/06/25 04:03:47;;;;;;;3.63;3.43;;;14.80;99.90;;;;;;4984706;28;20552;-79
2022/06/25 04:06:15;;;;;;;3.70;3.50;;;14.80;99.90;;;;;;4985352;28;20469;-79
2022/06/25 04:08:42;;;;;;;3.60;3.33;;;14.80;99.90;;;;;;4985797;28;20469;-79
2022/06/25 04:11:09;;;;;;;3.20;3.00;;;14.90;99.90;;;;;;4985499;28;20545;-80
2022/06/25 04:13:37;;;;;;;3.77;3.47;;;14.90;99.90;;;;;;4990141;28;21107;-79
2022/06/25 04:16:05;;;;;;;3.90;3.00;;;15.00;99.90;;;;;;4986033;28;20532;-78
2022/06/25 04:18:32;;;;;;;3.17;2.97;;;15.10;99.90;;;;;;4988126;28;20466;-78
2022/06/25 04:20:59;;;;;;;2.73;2.53;;;15.10;99.90;;;;;;4989875;28;20493;-78
2022/06/25 04:23:27;;;;;;;3.67;3.20;;;15.20;99.90;;;;;;4992401;28;20461;-79
2022/06/25 04:25:54;;;;;;;2.90;2.80;;;15.20;99.90;;;;;;4988501;28;20482;-78
2022/06/25 04:31:08;;;;;;;3.40;3.10;;;15.30;99.90;;;;;;4991128;28;21036;-79
2022/06/25 04:33:35;;;;;;;2.70;2.50;;;15.40;99.90;;;;;;4990481;28;20453;-78
2022/06/25 04:36:02;;;;;;;2.50;2.40;;;15.40;99.90;;;;;;4986188;28;20569;-78
2022/06/25 04:38:29;;;;;;;5.20;3.50;;;15.50;99.90;;;;;;4986534;28;20558;-78
2022/06/25 04:40:57;;;;;;;2.70;2.37;;;15.50;99.90;;;;;;4987222;28;21006;-78
2022/06/25 04:43:24;;;;;;;4.57;2.90;;;15.60;99.90;;;;;;4990587;28;20453;-78
2022/06/25 04:45:51;;;;;;;3.10;2.90;;;15.70;99.90;;;;;;4989834;28;20536;-78
2022/06/25 04:48:20;;;;;;;2.87;2.67;;;15.80;99.90;;;;;;4990451;28;20458;-78
2022/06/25 04:50:47;;;;;;;4.37;2.87;;;15.80;99.90;;;;;;4989149;28;20464;-78
2022/06/25 04:53:14;;;;;;;3.07;2.87;;;15.80;99.90;;;;;;4985461;28;20487;-78
2022/06/25 04:55:42;;;;;;;3.20;2.90;;;15.80;99.90;;;;;;4989328;28;20485;-78
2022/06/25 04:58:09;;;;;;;3.20;3.00;;;15.80;99.90;;;;;;4988170;28;20454;-77
2022/06/25 05:00:36;;;;;;;4.17;3.03;;;15.90;99.90;;;;;;4988055;28;22400;-78
2022/06/25 05:03:03;;;;;;;3.20;3.00;;;15.90;99.90;;;;;;4991537;28;20565;-78
2022/06/25 05:05:32;;;;;;;3.20;2.90;;;15.90;99.90;;;;;;4987950;28;22173;-78
2022/06/25 05:07:59;;;;;;;3.07;2.87;;;16.00;99.90;;;;;;4984608;28;20450;-76
2022/06/25 05:10:27;;;;;;;3.30;3.00;;;16.10;99.90;;;;;;4988720;28;20462;-78
2022/06/25 05:15:47;;;;;;;3.17;2.87;;;16.20;99.90;;;;;;4955169;28;20497;-79
2022/06/25 05:18:14;;;;;;;3.00;2.80;;;16.30;99.90;;;;;;4992009;28;20474;-79
2022/06/25 05:20:44;;;;;;;3.00;2.80;;;16.40;99.90;;;;;;4989158;28;20570;-79
2022/06/25 05:23:13;;;;;;;3.70;3.40;;;16.40;99.90;;;;;;4991747;28;20616;-79
2022/06/25 05:25:40;;;;;;;3.27;3.03;;;16.50;99.90;;;;;;4986687;28;20845;-79
2022/06/25 05:28:08;;;;;;;2.77;2.57;;;16.50;99.90;;;;;;4988269;28;20474;-79
2022/06/25 05:30:36;;;;;;;3.17;2.93;;;16.60;99.90;;;;;;4985630;28;20454;-79
2022/06/25 05:33:03;;;;;;;2.93;2.80;;;16.70;99.90;;;;;;4988216;28;20454;-79
2022/06/25 05:35:30;;;;;;;3.10;2.90;;;16.70;99.90;;;;;;4985237;28;20484;-79
2022/06/25 05:37:58;;;;;;;3.53;2.60;;;16.80;99.90;;;;;;4991326;28;20458;-80
2022/06/25 05:40:25;;;;;;;3.50;3.27;;;16.80;99.90;;;;;;4990213;28;20478;-80
2022/06/25 05:42:52;;;;;;;3.13;2.80;;;16.90;99.90;;;;;;4986887;28;20458;-79
2022/06/25 05:45:19;;;;;;;3.80;3.10;;;16.90;99.90;;;;;;4989512;28;20473;-79
2022/06/25 05:47:48;;;;;;;3.30;3.10;;;17.00;99.90;;;;;;4990327;28;20489;-79
2022/06/25 05:50:15;;;;;;;2.80;2.60;;;17.00;99.90;;;;;;4988323;28;20558;-80
2022/06/25 05:52:42;;;;;;;3.27;2.97;;;17.10;99.90;;;;;;4990666;28;20466;-80
2022/06/25 05:55:12;;;;;;;2.90;2.70;;;17.20;99.90;;;;;;4992003;28;20481;-79
2022/06/25 05:57:39;;;;;;;3.07;2.87;;;17.30;99.90;;;;;;4992367;28;20469;-79
2022/06/25 06:00:08;;;;;;;2.50;2.30;;;17.30;99.90;;;;;;4985843;28;20498;-79
2022/06/25 06:02:35;;;;;;;3.57;2.50;;;17.50;99.90;;;;;;4985197;28;20536;-79
2022/06/25 06:05:02;;;;;;;3.10;2.80;;;17.50;99.90;;;;;;4984793;28;20489;-81
2022/06/25 06:07:30;;;;;;;2.80;2.60;;;17.50;99.90;;;;;;4984037;28;20525;-77
2022/06/25 06:09:57;;;;;;;2.70;2.33;;;17.50;99.90;;;;;;4988773;28;20458;-77
2022/06/25 06:12:25;;;;;;;2.27;2.17;;;17.50;99.90;;;;;;4984799;28;20481;-78
2022/06/25 06:14:53;;;;;;;2.60;2.40;;;17.50;99.90;;;;;;4989195;28;20474;-76
2022/06/25 06:17:20;;;;;;;3.00;2.70;;;17.50;99.90;;;;;;4984272;28;20450;-78
2022/06/25 06:19:47;;;;;;;3.33;2.43;;;17.50;99.90;;;;;;4986529;28;20470;-77
2022/06/25 06:22:14;;;;;;;3.03;2.20;;;17.60;99.90;;;;;;4987834;28;20812;-76
2022/06/25 06:24:41;;;;;;;2.60;2.40;;;17.60;99.90;;;;;;4983411;28;20466;-76
2022/06/25 06:27:09;;;;;;;2.37;2.27;;;17.60;99.90;;;;;;4987924;28;20458;-76
2022/06/25 06:29:37;;;;;;;2.00;1.80;;;17.70;99.90;;;;;;4983408;28;20465;-77
2022/06/25 06:32:05;;;;;;;2.10;2.00;;;17.90;99.90;;;;;;4984934;28;20483;-76
2022/06/25 06:34:32;;;;;;;2.30;2.10;;;18.00;99.90;;;;;;4985206;28;20454;-76
2022/06/25 06:36:59;;;;;;;2.50;2.30;;;18.00;99.90;;;;;;4985004;28;20462;-77
2022/06/25 06:39:26;;;;;;;2.57;2.37;;;18.10;99.90;;;;;;4986857;28;21053;-76
2022/06/25 06:41:53;;;;;;;2.80;1.90;;;18.20;99.90;;;;;;4988235;28;21055;-76
2022/06/25 06:44:20;;;;;;;2.67;2.47;;;18.30;99.90;;;;;;4989279;28;20555;-76
2022/06/25 06:46:50;;;;;;;2.40;2.20;;;18.40;99.90;;;;;;4983713;28;20553;-83
2022/06/25 06:49:17;;;;;;;2.37;2.17;;;18.50;99.90;;;;;;4985277;28;20477;-76
2022/06/25 06:51:44;;;;;;;1.83;1.60;;;18.60;99.90;;;;;;4989211;28;20468;-76
2022/06/25 06:54:11;;;;;;;3.23;2.33;;;18.70;99.90;;;;;;4987164;28;20979;-77
2022/06/25 06:56:38;;;;;;;2.13;1.93;;;18.70;99.90;;;;;;4988488;28;20569;-77
2022/06/25 06:59:06;;;;;;;2.40;2.13;;;18.80;99.90;;;;;;4988607;28;20454;-77
2022/06/25 07:01:33;;;;;;;2.70;2.10;;;18.90;99.90;;;;;;4987280;28;20474;-77
2022/06/25 07:04:02;;;;;;;3.50;2.43;;;19.10;99.90;;;;;;4978377;28;20463;-77
2022/06/25 07:06:29;;;;;;;1.80;1.70;;;19.20;99.90;;;;;;4972734;28;20486;-77
2022/06/25 07:08:56;;;;;;;2.20;2.10;;;19.40;99.90;;;;;;4984972;28;20460;-77
2022/06/25 07:11:29;;;;;;;2.73;1.97;;;19.50;99.90;;;;;;4983427;28;20461;-78
2022/06/25 07:13:58;;;;;;;3.77;1.90;;;19.60;99.90;;;;;;4981534;28;20469;-77
2022/06/25 07:16:25;;;;;;;2.57;2.13;;;19.80;99.90;;;;;;4987583;28;20564;-78
2022/06/25 07:18:53;;;;;;;2.10;2.00;;;19.90;99.90;;;;;;4980201;28;20474;-77
2022/06/25 07:21:21;;;;;;;2.80;2.03;;;20.10;99.90;;;;;;4982693;28;20490;-77
2022/06/25 07:23:48;;;;;;;2.73;1.73;;;20.20;99.90;;;;;;4987790;28;20469;-77
2022/06/25 07:26:15;;;;;;;2.47;1.57;;;20.30;99.90;;;;;;4983681;28;20493;-77
2022/06/25 07:28:43;;;;;;;1.97;1.77;;;20.30;99.90;;;;;;4989679;28;20516;-77
2022/06/25 07:31:10;;;;;;;1.87;1.70;;;20.50;99.90;;;;;;4983187;28;20454;-77
2022/06/25 07:33:37;;;;;;;2.70;1.90;;;20.60;99.90;;;;;;4988392;28;20497;-77
2022/06/25 07:36:05;;;;;;;1.93;1.83;;;20.80;99.90;;;;;;4986156;28;21023;-77
2022/06/25 07:38:34;;;;;;;2.30;1.77;;;21.00;99.90;;;;;;4979323;28;20454;-77
2022/06/25 07:41:02;;;;;;;2.07;1.60;;;21.30;99.90;;;;;;4985896;28;20482;-77
2022/06/25 07:43:29;;;;;;;2.07;1.87;;;21.60;99.90;;;;;;4985426;28;20485;-77
2022/06/25 07:45:58;;;;;;;4.13;1.90;;;21.90;99.90;;;;;;4987475;28;20500;-77
2022/06/25 07:48:25;;;;;;;1.60;1.50;;;22.10;99.90;;;;;;4980499;28;20454;-77
2022/06/25 07:53:38;;;;;;;2.37;1.80;;;22.40;99.90;;;;;;4984793;28;20470;-77
2022/06/25 07:56:06;;;;;;;1.60;1.50;;;22.70;99.90;;;;;;4986519;28;20478;-77
2022/06/25 07:58:34;;;;;;;1.93;1.83;;;23.20;99.90;;;;;;4977191;28;20982;-77
2022/06/25 08:01:01;;;;;;;1.90;1.70;;;23.60;99.90;;;;;;4988165;28;20485;-77
2022/06/25 08:03:28;;;;;;;1.67;1.57;;;24.00;99.90;;;;;;4988797;28;20458;-77
2022/06/25 08:05:56;;;;;;;2.63;1.50;;;24.60;99.90;;;;;;4988239;28;20473;-77
2022/06/25 08:08:23;;;;;;;2.27;1.90;;;25.20;99.90;;;;;;4985754;28;21209;-77
2022/06/25 08:10:52;;;;;;;3.93;1.73;;;25.50;99.90;;;;;;4976302;28;20465;-77
2022/06/25 08:13:19;;;;;;;1.70;1.60;;;25.80;99.90;;;;;;4985697;28;20886;-77
2022/06/25 08:15:46;;;;;;;1.70;1.60;;;26.00;99.90;;;;;;4986560;28;20830;-77
2022/06/25 08:18:13;;;;;;;2.07;1.87;;;25.70;99.90;;;;;;4988193;28;20461;-78
2022/06/25 08:20:40;;;;;;;2.90;2.10;;;25.80;99.90;;;;;;4981067;28;20473;-78
2022/06/25 08:23:07;;;;;;;1.97;1.87;;;26.20;99.90;;;;;;4985692;28;20859;-79
2022/06/25 08:25:34;;;;;;;1.73;1.63;;;26.60;99.90;;;;;;4986626;28;21008;-78
2022/06/25 08:28:03;;;;;;;1.93;1.63;;;26.80;99.90;;;;;;4989871;28;20507;-78
2022/06/25 08:30:30;;;;;;;1.60;1.50;;;27.10;99.90;;;;;;4982218;28;20450;-78
2022/06/25 08:32:58;;;;;;;2.00;1.80;;;27.30;99.90;;;;;;4986186;28;20482;-78
2022/06/25 08:35:25;;;;;;;1.70;1.60;;;27.90;99.90;;;;;;4976951;28;20600;-78
2022/06/25 08:37:52;;;;;;;3.67;1.90;;;28.20;99.90;;;;;;4973892;28;22904;-78
2022/06/25 08:40:21;;;;;;;3.37;1.83;;;27.90;99.90;;;;;;4987067;28;20505;-78
2022/06/25 08:42:49;;;;;;;3.03;1.60;;;28.60;99.30;;;;;;4983319;28;20468;-78
2022/06/25 08:45:18;;;;;;;2.00;1.30;;;28.50;98.50;;;;;;4989003;28;20824;-78
2022/06/25 08:47:46;;;;;;;2.20;1.50;;;28.80;99.90;;;;;;4984349;28;20473;-78
2022/06/25 08:50:15;;;;;;;1.70;1.60;;;29.40;99.90;;;;;;4982417;28;20540;-79
2022/06/25 08:52:47;;;;;;;1.70;1.57;;;29.50;98.90;;;;;;4978876;28;20470;-76
2022/06/25 08:55:22;;;;;;;1.63;1.47;;;29.70;98.50;;;;;;4991508;28;20528;-77
2022/06/25 08:57:49;;;;;;;2.90;1.80;;;29.90;96.10;;;;;;4976106;28;22595;-77
2022/06/25 09:00:18;;;;;;;2.13;1.80;;;29.10;97.20;;;;;;4985131;28;20454;-76
2022/06/25 09:02:45;;;;;;;2.13;1.70;;;27.90;97.30;;;;;;4983176;28;20656;-76
2022/06/25 09:05:12;;;;;;;1.77;1.60;;;27.40;99.90;;;;;;4991588;28;20509;-77
2022/06/25 09:07:52;;;;;;;1.63;1.53;;;27.60;98.80;;;;;;4983033;28;20465;-77
2022/06/25 09:10:20;;;;;;;1.63;1.50;;;28.10;97.80;;;;;;4977154;28;20549;-77
2022/06/25 09:12:51;;;;;;;1.80;1.70;;;28.60;98.90;;;;;;4987088;28;20548;-78
2022/06/25 09:15:24;;;;;;;2.60;1.77;;;28.80;98.20;;;;;;4974286;28;20582;-78
2022/06/25 09:17:52;;;;;;;2.07;1.63;;;29.20;97.80;;;;;;4984620;28;20538;-78
2022/06/25 09:20:20;;;;;;;2.27;1.40;;;29.30;96.70;;;;;;4989048;28;20458;-78
2022/06/25 09:22:56;;;;;;;3.20;1.47;;;29.20;94.90;;;;;;4981626;28;20504;-78
2022/06/25 09:25:27;;;;;;;1.53;1.43;;;29.40;95.80;;;;;;4985126;28;20502;-79
2022/06/25 09:27:55;;;;;;;2.50;1.60;;;29.80;94.40;;;;;;4989134;28;20465;-78
2022/06/25 09:30:25;;;;;;;1.53;1.43;;;30.20;92.50;;;;;;4985545;28;20473;-77
2022/06/25 09:32:56;;;;;;;3.20;1.90;;;30.40;93.00;;;;;;4983687;28;20474;-77
2022/06/25 09:35:32;;;;;;;2.43;1.80;;;30.70;93.30;;;;;;4981812;28;20493;-77
2022/06/25 09:38:04;;;;;;;1.73;1.40;;;31.20;91.70;;;;;;4984018;28;20826;-77
2022/06/25 09:40:32;;;;;;;1.67;1.40;;;31.40;92.10;;;;;;4967920;28;21294;-77
2022/06/25 09:42:59;;;;;;;2.40;1.60;;;31.40;91.30;;;;;;4990140;28;21171;-78
2022/06/25 09:45:36;;;;;;;1.70;1.50;;;31.60;91.80;;;;;;4981733;28;20478;-77
2022/06/25 09:48:03;;;;;;;2.00;1.50;;;31.20;90.50;;;;;;4983801;28;21099;-77
2022/06/25 09:50:30;;;;;;;1.60;1.40;;;31.00;91.10;;;;;;4976356;28;20948;-77
2022/06/25 09:52:59;;;;;;;2.00;1.40;;;31.30;90.20;;;;;;4982553;28;20980;-77
2022/06/25 09:55:28;;;;;;;1.70;1.33;;;31.70;88.10;;;;;;4986961;28;20797;-77
2022/06/25 09:57:56;;;;;;;1.80;1.50;;;31.40;88.90;;;;;;4975594;28;20458;-76
2022/06/25 10:00:24;;;;;;;1.40;1.30;;;31.60;89.50;;;;;;4985437;28;20961;-77
2022/06/25 10:02:56;;;;;;;1.37;1.27;;;31.80;86.90;;;;;;4984138;28;21018;-77
2022/06/25 10:05:27;;;;;;;3.30;1.33;;;32.50;86.10;;;;;;4981170;28;20484;-76
2022/06/25 10:08:03;;;;;;;2.70;1.80;;;32.30;85.80;;;;;;4987102;28;20458;-75
2022/06/25 10:10:33;;;;;;;1.87;1.37;;;31.60;87.10;;;;;;4987780;28;20450;-76
2022/06/25 10:13:02;;;;;;;1.70;1.60;;;31.00;86.10;;;;;;4983817;28;20463;-76
2022/06/25 10:15:29;;;;;;;1.80;1.70;;;30.80;86.90;;;;;;4983883;28;20540;-76
2022/06/25 10:18:01;;;;;;;1.40;1.30;;;30.50;87.60;;;;;;4975934;28;20515;-76
2022/06/25 10:20:28;;;;;;;1.77;1.60;;;30.60;86.20;;;;;;4984141;28;20472;-76
2022/06/25 10:22:56;;;;;;;1.80;1.60;;;30.90;85.70;;;;;;4983169;28;20497;-76
2022/06/25 10:25:25;;;;;;;1.70;1.60;;;31.20;86.30;;;;;;4988262;28;20482;-76
2022/06/25 10:28:05;;;;;;;1.83;1.50;;;31.00;85.40;;;;;;4982662;28;20528;-76
2022/06/25 10:30:38;;;;;;;1.60;1.50;;;30.50;85.10;;;;;;4987949;28;20462;-76
2022/06/25 10:33:07;;;;;;;2.20;1.60;;;30.30;88.20;;;;;;4989897;28;20523;-76
2022/06/25 10:35:36;;;;;;;2.63;1.73;;;30.40;88.60;;;;;;4979996;28;20508;-76
2022/06/25 10:38:06;;;;;;;1.87;1.50;;;30.50;88.60;;;;;;4983786;28;20503;-76
2022/06/25 10:40:34;;;;;;;1.63;1.53;;;31.00;86.70;;;;;;4986124;28;20509;-76
2022/06/25 10:43:02;;;;;;;1.60;1.50;;;31.70;86.90;;;;;;4982652;28;20481;-77
2022/06/25 10:45:56;;;;;;;2.40;1.77;;;31.90;84.60;;;;;;4983407;28;20478;-76
2022/06/25 10:48:24;;;;;;;1.60;1.50;;;32.10;84.10;;;;;;4987707;28;20459;-76
2022/06/25 10:50:53;;;;;;;2.57;1.90;;;32.20;83.00;;;;;;4984509;28;20458;-76
2022/06/25 10:53:24;;;;;;;1.83;1.70;;;32.10;81.80;;;;;;4983973;28;20487;-76
2022/06/25 10:56:18;;;;;;;2.10;1.80;;;31.60;82.20;;;;;;4987383;28;20461;-76
2022/06/25 10:58:47;;;;;;;2.90;1.83;;;31.00;83.50;;;;;;4986101;28;20470;-76
2022/06/25 11:01:29;;;;;;;1.83;1.70;;;29.50;88.00;;;;;;4986956;28;20969;-77
2022/06/25 11:04:00;;;;;;;1.70;1.50;;;29.10;88.30;;;;;;4984741;28;20492;-77
2022/06/25 11:06:30;;;;;;;1.90;1.80;;;28.80;89.60;;;;;;4974091;28;20512;-77
2022/06/25 11:09:05;;;;;;;2.07;1.70;;;28.90;88.60;;;;;;4982486;28;20992;-77
2022/06/25 11:11:34;;;;;;;2.50;1.60;;;28.60;90.00;;;;;;4974063;28;20458;-77
2022/06/25 11:14:03;;;;;;;1.70;1.60;;;29.10;88.40;;;;;;4982803;28;20617;-77
2022/06/25 11:16:30;;;;;;;2.00;1.80;;;29.10;89.60;;;;;;4988169;28;20450;-77
2022/06/25 11:19:00;;;;;;;1.70;1.60;;;28.80;90.40;;;;;;4972872;28;21119;-76
2022/06/25 11:21:33;;;;;;;2.90;1.67;;;28.40;89.40;;;;;;4980874;28;20509;-77
2022/06/25 11:24:10;;;;;;;3.23;1.67;;;28.60;90.70;;;;;;4983090;28;21008;-77
2022/06/25 11:29:24;;;;;;;1.50;1.40;;;28.60;90.50;;;;;;4983524;28;20559;-77
2022/06/25 11:31:52;;;;;;;2.27;1.63;;;28.80;89.20;;;;;;4986940;28;20454;-78
2022/06/25 11:34:22;;;;;;;2.73;2.00;;;29.10;88.70;;;;;;4978080;28;20473;-77
2022/06/25 11:36:58;;;;;;;1.97;1.87;;;29.20;88.00;;;;;;4978173;28;20472;-77
2022/06/25 11:39:25;;;;;;;1.77;1.67;;;29.60;90.00;;;;;;4979913;28;20461;-77
2022/06/25 11:41:53;;;;;;;2.50;1.60;;;30.20;86.20;;;;;;4986975;28;20478;-76
2022/06/25 11:44:20;;;;;;;3.53;1.87;;;29.90;85.40;;;;;;4977871;28;20489;-77
2022/06/25 11:46:49;;;;;;;1.67;1.57;;;29.90;86.30;;;;;;4983818;28;20473;-78
2022/06/25 11:49:19;;;;;;;2.00;1.83;;;30.00;87.20;;;;;;4976934;28;20482;-77
2022/06/25 11:51:50;;;;;;;3.30;1.50;;;30.30;84.70;;;;;;4985962;28;20498;-77
2022/06/25 11:54:22;;;;;;;1.83;1.73;;;30.50;85.90;;;;;;4974581;28;20509;-77
2022/06/25 11:56:51;;;;;;;2.73;1.70;;;30.50;84.50;;;;;;4976788;28;20476;-77
2022/06/25 11:59:27;;;;;;;2.33;1.80;;;30.70;86.30;;;;;;4980736;28;20465;-76
2022/06/25 12:01:56;;;;;;;2.90;1.80;;;30.60;84.00;;;;;;4982755;28;20585;-77
2022/06/25 12:04:24;;;;;;;2.00;1.57;;;30.60;83.30;;;;;;4984276;28;20481;-77
2022/06/25 12:06:54;;;;;;;1.77;1.60;;;30.70;83.40;;;;;;4985291;28;20458;-77
2022/06/25 12:09:22;;;;;;;2.57;1.97;;;31.10;81.70;;;;;;4977186;28;20473;-77
2022/06/25 12:11:55;;;;;;;2.07;1.63;;;31.30;81.80;;;;;;4981500;28;20458;-77
2022/06/25 12:14:24;;;;;;;1.60;1.50;;;31.00;80.10;;;;;;4979232;28;20489;-77
2022/06/25 12:16:52;;;;;;;1.40;1.30;;;30.90;78.00;;;;;;4989461;28;20450;-77
2022/06/25 12:19:20;;;;;;;3.20;1.73;;;30.70;79.40;;;;;;4985077;28;20474;-77
2022/06/25 12:21:47;;;;;;;2.03;1.77;;;30.70;77.90;;;;;;4984660;28;20489;-77
2022/06/25 12:24:19;;;;;;;1.70;1.60;;;30.60;80.40;;;;;;4979494;28;20569;-77
2022/06/25 12:26:53;;;;;;;1.70;1.60;;;30.70;81.00;;;;;;4981381;28;20534;-76
2022/06/25 12:29:24;;;;;;;1.43;1.33;;;31.00;79.10;;;;;;4977071;28;20457;-77
2022/06/25 12:31:54;;;;;;;4.13;1.67;;;31.60;79.80;;;;;;4986241;28;20462;-78
2022/06/25 12:34:21;;;;;;;2.93;1.50;;;31.40;80.10;;;;;;4981397;28;20623;-77
2022/06/25 12:36:49;;;;;;;1.63;1.50;;;31.20;77.90;;;;;;4980648;28;20465;-77
2022/06/25 12:39:35;;;;;;;1.70;1.60;;;31.20;76.60;;;;;;4983902;28;20472;-77
2022/06/25 12:42:04;;;;;;;1.60;1.40;;;31.10;80.10;;;;;;4987003;28;21192;-77
2022/06/25 12:44:33;;;;;;;1.53;1.43;;;31.40;77.50;;;;;;4986583;28;20580;-77
2022/06/25 12:47:01;;;;;;;1.67;1.30;;;31.40;75.40;;;;;;4987647;28;20461;-78
2022/06/25 12:49:44;;;;;;;1.50;1.40;;;31.40;74.60;;;;;;4977299;28;20462;-78
2022/06/25 12:52:12;;;;;;;1.90;1.40;;;30.70;77.20;;;;;;4983494;28;20502;-77
2022/06/25 12:54:43;;;;;;;1.97;1.33;;;30.40;76.50;;;;;;4986386;28;20540;-77
2022/06/25 12:57:17;;;;;;;1.43;1.33;;;30.90;76.90;;;;;;4993077;28;25653;-77
2022/06/25 12:59:45;;;;;;;1.70;1.50;;;31.30;76.10;;;;;;4988337;28;20473;-77
2022/06/25 13:02:13;;;;;;;1.80;1.50;;;31.20;73.20;;;;;;4981221;28;20488;-78
2022/06/25 13:04:41;;;;;;;1.40;1.30;;;31.10;74.20;;;;;;4979926;28;21223;-82
2022/06/25 13:07:09;;;;;;;1.77;1.67;;;32.30;74.10;;;;;;4981505;28;20481;-77
2022/06/25 13:09:36;;;;;;;2.97;1.60;;;33.50;72.00;;;;;;4989216;28;20460;-77
2022/06/25 13:12:05;;;;;;;1.73;1.43;;;35.90;66.70;;;;;;4986997;28;20470;-78